sensor_id;sensor_type;location;lat;lon;timestamp;pressure;altitude;pressure_sealevel;temperature;humidity
9421;BME280;4749;51.398;5.466;2023-05-18T00:01:22;102545.25;;;10.69;100.00
9421;BME280;4749;51.398;5.466;2023-05-18T00:03:49;102527.53;;;10.64;100.00
9421;BME280;4749;51.398;5.466;2023-05-18T00:06:20;102537.03;;;10.59;100.00
9421;BME280;4749;51.398;5.466;2023-05-18T00:08:48;102536.06;;;10.55;100.00
9421;BME280;4749;51.398;5.466;2023-05-18T00:11:15;102533.34;;;10.52;100.00
9421;BME280;4749;51.398;5.466;2023-05-18T00:13:43;102535.78;;;10.46;100.00
9421;BME280;4749;51.398;5.466;2023-05-18T00:16:10;102536.53;;;10.42;100.00
9421;BME280;4749;51.398;5.466;2023-05-18T00:18:39;102537.28;;;10.38;100.00
9421;BME280;4749;51.398;5.466;2023-05-18T00:21:08;102537.22;;;10.35;100.00
9421;BME280;4749;51.398;5.466;2023-05-18T00:23:36;102536.16;;;10.30;100.00
9421;BME280;4749;51.398;5.466;2023-05-18T00:26:05;102543.97;;;10.27;100.00
9421;BME280;4749;51.398;5.466;2023-05-18T00:28:32;102539.44;;;10.23;100.00
9421;BME280;4749;51.398;5.466;2023-05-18T00:30:59;102534.03;;;10.18;100.00
9421;BME280;4749;51.398;5.466;2023-05-18T00:33:29;102542.66;;;10.14;100.00
9421;BME280;4749;51.398;5.466;2023-05-18T00:35:56;102537.25;;;10.09;100.00
9421;BME280;4749;51.398;5.466;2023-05-18T00:38:23;102544.09;;;10.04;100.00
9421;BME280;4749;51.398;5.466;2023-05-18T00:40:51;102544.06;;;10.03;100.00
9421;BME280;4749;51.398;5.466;2023-05-18T00:43:18;102548.28;;;9.99;100.00
9421;BME280;4749;51.398;5.466;2023-05-18T00:45:45;102539.41;;;9.94;100.00
9421;BME280;4749;51.398;5.466;2023-05-18T00:48:12;102544.53;;;9.91;100.00
9421;BME280;4749;51.398;5.466;2023-05-18T00:50:39;102546.19;;;9.87;100.00
9421;BME280;4749;51.398;5.466;2023-05-18T00:53:07;102549.53;;;9.83;100.00
9421;BME280;4749;51.398;5.466;2023-05-18T00:55:37;102545.03;;;9.79;100.00
9421;BME280;4749;51.398;5.466;2023-05-18T00:58:04;102549.34;;;9.77;100.00
9421;BME280;4749;51.398;5.466;2023-05-18T01:00:32;102548.41;;;9.75;100.00
9421;BME280;4749;51.398;5.466;2023-05-18T01:02:59;102545.59;;;9.69;100.00
9421;BME280;4749;51.398;5.466;2023-05-18T01:05:28;102547.28;;;9.67;100.00
9421;BME280;4749;51.398;5.466;2023-05-18T01:07:55;102545.41;;;9.65;100.00
9421;BME280;4749;51.398;5.466;2023-05-18T01:10:23;102544.47;;;9.63;100.00
9421;BME280;4749;51.398;5.466;2023-05-18T01:12:59;102544.31;;;9.58;100.00
9421;BME280;4749;51.398;5.466;2023-05-18T01:15:36;102541.59;;;9.55;100.00
9421;BME280;4749;51.398;5.466;2023-05-18T01:18:35;102547.59;;;9.51;100.00
9421;BME280;4749;51.398;5.466;2023-05-18T01:21:37;102546.63;;;9.49;100.00
9421;BME280;4749;51.398;5.466;2023-05-18T01:24:47;102545.59;;;9.44;100.00
9421;BME280;4749;51.398;5.466;2023-05-18T01:27:12;102547.28;;;9.42;100.00
9421;BME280;4749;51.398;5.466;2023-05-18T01:29:44;102547.13;;;9.37;100.00
9421;BME280;4749;51.398;5.466;2023-05-18T01:32:18;102546.22;;;9.37;100.00
9421;BME280;4749;51.398;5.466;2023-05-18T01:34:48;102554.94;;;9.36;100.00
9421;BME280;4749;51.398;5.466;2023-05-18T01:37:15;102549.56;;;9.32;100.00
9421;BME280;4749;51.398;5.466;2023-05-18T01:39:42;102545.16;;;9.31;100.00
9421;BME280;4749;51.398;5.466;2023-05-18T01:42:16;102551.19;;;9.29;100.00
9421;BME280;4749;51.398;5.466;2023-05-18T01:44:52;102545.78;;;9.24;100.00
9421;BME280;4749;51.398;5.466;2023-05-18T01:47:19;102557.13;;;9.23;100.00
9421;BME280;4749;51.398;5.466;2023-05-18T01:50:08;102556.19;;;9.21;100.00
9421;BME280;4749;51.398;5.466;2023-05-18T01:53:12;102556.94;;;9.17;100.00
9421;BME280;4749;51.398;5.466;2023-05-18T01:55:41;102555.06;;;9.15;100.00
9421;BME280;4749;51.398;5.466;2023-05-18T01:58:09;102549.75;;;9.13;100.00
9421;BME280;4749;51.398;5.466;2023-05-18T02:00:38;102552.28;;;9.10;100.00
9421;BME280;4749;51.398;5.466;2023-05-18T02:03:05;102552.28;;;9.10;100.00
9421;BME280;4749;51.398;5.466;2023-05-18T02:05:32;102544.38;;;9.09;100.00
9421;BME280;4749;51.398;5.466;2023-05-18T02:07:59;102543.41;;;9.07;100.00
9421;BME280;4749;51.398;5.466;2023-05-18T02:10:26;102547.75;;;9.06;100.00
9421;BME280;4749;51.398;5.466;2023-05-18T02:12:54;102545.91;;;9.03;100.00
9421;BME280;4749;51.398;5.466;2023-05-18T02:15:21;102544.13;;;9.02;100.00
9421;BME280;4749;51.398;5.466;2023-05-18T02:17:48;102542.22;;;8.98;100.00
9421;BME280;4749;51.398;5.466;2023-05-18T02:20:15;102545.63;;;8.96;100.00
9421;BME280;4749;51.398;5.466;2023-05-18T02:22:45;102536.00;;;8.95;100.00
9421;BME280;4749;51.398;5.466;2023-05-18T02:25:12;102536.00;;;8.95;100.00
9421;BME280;4749;51.398;5.466;2023-05-18T02:27:39;102534.22;;;8.94;100.00
9421;BME280;4749;51.398;5.466;2023-05-18T02:30:07;102532.44;;;8.93;100.00
9421;BME280;4749;51.398;5.466;2023-05-18T02:32:35;102526.22;;;8.91;100.00
9421;BME280;4749;51.398;5.466;2023-05-18T02:35:06;102539.28;;;8.89;100.00
9421;BME280;4749;51.398;5.466;2023-05-18T02:37:34;102532.25;;;8.88;100.00
9421;BME280;4749;51.398;5.466;2023-05-18T02:40:09;102524.31;;;8.87;100.00
9421;BME280;4749;51.398;5.466;2023-05-18T02:42:38;102536.56;;;8.86;100.00
9421;BME280;4749;51.398;5.466;2023-05-18T02:45:06;102526.91;;;8.85;100.00
9421;BME280;4749;51.398;5.466;2023-05-18T02:47:34;102530.38;;;8.84;100.00
9421;BME280;4749;51.398;5.466;2023-05-18T02:50:01;102523.34;;;8.83;100.00
9421;BME280;4749;51.398;5.466;2023-05-18T02:52:28;102523.19;;;8.80;100.00
9421;BME280;4749;51.398;5.466;2023-05-18T02:54:55;102523.16;;;8.79;100.00
9421;BME280;4749;51.398;5.466;2023-05-18T02:57:23;102530.91;;;8.76;100.00
9421;BME280;4749;51.398;5.466;2023-05-18T02:59:50;102522.91;;;8.72;100.00
9421;BME280;4749;51.398;5.466;2023-05-18T03:02:17;102528.06;;;8.69;100.00
9421;BME280;4749;51.398;5.466;2023-05-18T03:04:44;102527.03;;;8.66;100.00
9421;BME280;4749;51.398;5.466;2023-05-18T03:07:15;102525.25;;;8.65;100.00
9421;BME280;4749;51.398;5.466;2023-05-18T03:09:42;102527.78;;;8.62;100.00
9421;BME280;4749;51.398;5.466;2023-05-18T03:12:09;102523.38;;;8.61;100.00
9421;BME280;4749;51.398;5.466;2023-05-18T03:14:36;102523.25;;;8.58;100.00
9421;BME280;4749;51.398;5.466;2023-05-18T03:17:03;102527.53;;;8.56;100.00
9421;BME280;4749;51.398;5.466;2023-05-18T03:19:32;102528.38;;;8.55;100.00
9421;BME280;4749;51.398;5.466;2023-05-18T03:22:00;102525.66;;;8.52;100.00
9421;BME280;4749;51.398;5.466;2023-05-18T03:24:28;102531.66;;;8.49;100.00
9421;BME280;4749;51.398;5.466;2023-05-18T03:26:56;102524.56;;;8.46;100.00
9421;BME280;4749;51.398;5.466;2023-05-18T03:29:23;102535.06;;;8.46;100.00
9421;BME280;4749;51.398;5.466;2023-05-18T03:31:50;102529.75;;;8.45;100.00
9421;BME280;4749;51.398;5.466;2023-05-18T03:34:17;102527.97;;;8.44;100.00
9421;BME280;4749;51.398;5.466;2023-05-18T03:36:44;102527.94;;;8.42;100.00
9421;BME280;4749;51.398;5.466;2023-05-18T03:39:13;102526.94;;;8.40;100.00
9421;BME280;4749;51.398;5.466;2023-05-18T03:41:40;102526.00;;;8.38;100.00
9421;BME280;4749;51.398;5.466;2023-05-18T03:44:07;102525.06;;;8.36;100.00
9421;BME280;4749;51.398;5.466;2023-05-18T03:46:34;102529.41;;;8.36;100.00
9421;BME280;4749;51.398;5.466;2023-05-18T03:49:02;102527.53;;;8.33;100.00
9421;BME280;4749;51.398;5.466;2023-05-18T03:51:30;102529.31;;;8.34;100.00
9421;BME280;4749;51.398;5.466;2023-05-18T03:53:58;102530.16;;;8.33;100.00
9421;BME280;4749;51.398;5.466;2023-05-18T03:56:25;102537.28;;;8.36;100.00
9421;BME280;4749;51.398;5.466;2023-05-18T03:58:52;102532.09;;;8.37;100.00
9421;BME280;4749;51.398;5.466;2023-05-18T04:01:19;102531.19;;;8.37;100.00
9421;BME280;4749;51.398;5.466;2023-05-18T04:03:49;102533.03;;;8.39;100.00
9421;BME280;4749;51.398;5.466;2023-05-18T04:06:17;102538.41;;;8.42;100.00
9421;BME280;4749;51.398;5.466;2023-05-18T04:08:48;102536.72;;;8.44;100.00
9421;BME280;4749;51.398;5.466;2023-05-18T04:11:16;102542.03;;;8.46;100.00
9421;BME280;4749;51.398;5.466;2023-05-18T04:13:44;102543.88;;;8.49;100.00
9421;BME280;4749;51.398;5.466;2023-05-18T04:16:11;102544.00;;;8.52;100.00
9421;BME280;4749;51.398;5.466;2023-05-18T04:18:40;102547.66;;;8.57;100.00
9421;BME280;4749;51.398;5.466;2023-05-18T04:21:07;102547.84;;;8.61;100.00
9421;BME280;4749;51.398;5.466;2023-05-18T04:23:35;102544.59;;;8.67;100.00
9421;BME280;4749;51.398;5.466;2023-05-18T04:26:07;102551.06;;;8.77;100.00
9421;BME280;4749;51.398;5.466;2023-05-18T04:28:34;102558.53;;;8.90;100.00
9421;BME280;4749;51.398;5.466;2023-05-18T04:31:03;102558.09;;;9.01;100.00
9421;BME280;4749;51.398;5.466;2023-05-18T04:33:31;102560.16;;;9.10;100.00
9421;BME280;4749;51.398;5.466;2023-05-18T04:35:58;102556.03;;;9.17;100.00
9421;BME280;4749;51.398;5.466;2023-05-18T04:38:32;102552.75;;;9.24;100.00
9421;BME280;4749;51.398;5.466;2023-05-18T04:41:00;102554.63;;;9.26;100.00
9421;BME280;4749;51.398;5.466;2023-05-18T04:43:31;102564.38;;;9.30;100.00
9421;BME280;4749;51.398;5.466;2023-05-18T04:45:58;102564.53;;;9.35;100.00
9421;BME280;4749;51.398;5.466;2023-05-18T04:48:25;102564.66;;;9.38;100.00
9421;BME280;4749;51.398;5.466;2023-05-18T04:50:52;102563.03;;;9.42;100.00
9421;BME280;4749;51.398;5.466;2023-05-18T04:53:22;102567.50;;;9.44;100.00
9421;BME280;4749;51.398;5.466;2023-05-18T04:55:52;102571.09;;;9.48;100.00
9421;BME280;4749;51.398;5.466;2023-05-18T04:58:20;102566.03;;;9.52;100.00
9421;BME280;4749;51.398;5.466;2023-05-18T05:00:47;102572.31;;;9.57;100.00
9421;BME280;4749;51.398;5.466;2023-05-18T05:03:14;102572.56;;;9.65;100.00
9421;BME280;4749;51.398;5.466;2023-05-18T05:05:41;102571.91;;;9.71;100.00
9421;BME280;4749;51.398;5.466;2023-05-18T05:08:08;102576.47;;;9.76;100.00
9421;BME280;4749;51.398;5.466;2023-05-18T05:10:35;102573.13;;;9.82;100.00
9421;BME280;4749;51.398;5.466;2023-05-18T05:13:03;102581.31;;;9.91;100.00
9421;BME280;4749;51.398;5.466;2023-05-18T05:15:32;102578.84;;;9.96;100.00
9421;BME280;4749;51.398;5.466;2023-05-18T05:18:01;102581.69;;;10.02;100.00
9421;BME280;4749;51.398;5.466;2023-05-18T05:20:28;102578.47;;;10.10;100.00
9421;BME280;4749;51.398;5.466;2023-05-18T05:22:55;102581.53;;;10.24;100.00
9421;BME280;4749;51.398;5.466;2023-05-18T05:25:22;102585.44;;;10.35;100.00
9421;BME280;4749;51.398;5.466;2023-05-18T05:27:49;102580.44;;;10.45;100.00
9421;BME280;4749;51.398;5.466;2023-05-18T05:30:18;102583.31;;;10.52;100.00
9421;BME280;4749;51.398;5.466;2023-05-18T05:32:45;102587.09;;;10.62;100.00
9421;BME280;4749;51.398;5.466;2023-05-18T05:35:12;102587.31;;;10.68;100.00
9421;BME280;4749;51.398;5.466;2023-05-18T05:37:39;102590.22;;;10.77;100.00
9421;BME280;4749;51.398;5.466;2023-05-18T05:40:07;102585.28;;;10.89;100.00
9421;BME280;4749;51.398;5.466;2023-05-18T05:42:36;102593.44;;;10.98;100.00
9421;BME280;4749;51.398;5.466;2023-05-18T05:45:03;102585.81;;;11.08;100.00
9421;BME280;4749;51.398;5.466;2023-05-18T05:47:30;102592.09;;;11.13;100.00
9421;BME280;4749;51.398;5.466;2023-05-18T05:49:57;102584.31;;;11.17;100.00
9421;BME280;4749;51.398;5.466;2023-05-18T05:52:25;102585.06;;;11.12;100.00
9421;BME280;4749;51.398;5.466;2023-05-18T05:54:55;102583.09;;;11.05;100.00
9421;BME280;4749;51.398;5.466;2023-05-18T05:57:22;102585.59;;;11.00;100.00
9421;BME280;4749;51.398;5.466;2023-05-18T05:59:49;102588.00;;;10.92;100.00
9421;BME280;4749;51.398;5.466;2023-05-18T06:02:17;102588.81;;;10.90;100.00
9421;BME280;4749;51.398;5.466;2023-05-18T06:04:44;102596.78;;;10.93;100.00
9421;BME280;4749;51.398;5.466;2023-05-18T06:07:12;102604.09;;;11.02;100.00
9421;BME280;4749;51.398;5.466;2023-05-18T06:09:39;102590.97;;;11.03;100.00
9421;BME280;4749;51.398;5.466;2023-05-18T06:12:06;102591.94;;;11.07;100.00
9421;BME280;4749;51.398;5.466;2023-05-18T06:14:34;102593.03;;;11.15;100.00
9421;BME280;4749;51.398;5.466;2023-05-18T06:17:01;102596.09;;;11.30;100.00
9421;BME280;4749;51.398;5.466;2023-05-18T06:19:28;102598.38;;;11.49;100.00
9421;BME280;4749;51.398;5.466;2023-05-18T06:21:55;102598.06;;;11.70;100.00
9421;BME280;4749;51.398;5.466;2023-05-18T06:24:22;102595.09;;;11.91;100.00
9421;BME280;4749;51.398;5.466;2023-05-18T06:26:50;102602.59;;;12.10;100.00
9421;BME280;4749;51.398;5.466;2023-05-18T06:29:18;102594.09;;;12.22;100.00
9421;BME280;4749;51.398;5.466;2023-05-18T06:31:47;102606.59;;;12.31;100.00
9421;BME280;4749;51.398;5.466;2023-05-18T06:34:14;102606.81;;;12.40;100.00
9421;BME280;4749;51.398;5.466;2023-05-18T06:36:41;102608.03;;;12.54;100.00
9421;BME280;4749;51.398;5.466;2023-05-18T06:39:08;102603.03;;;12.68;100.00
9421;BME280;4749;51.398;5.466;2023-05-18T06:41:36;102608.59;;;12.79;100.00
9421;BME280;4749;51.398;5.466;2023-05-18T06:44:03;102607.09;;;12.93;100.00
9421;BME280;4749;51.398;5.466;2023-05-18T06:46:31;102602.97;;;13.06;100.00
9421;BME280;4749;51.398;5.466;2023-05-18T06:48:58;102604.97;;;13.17;100.00
9421;BME280;4749;51.398;5.466;2023-05-18T06:51:25;102604.28;;;13.26;100.00
9421;BME280;4749;51.398;5.466;2023-05-18T06:53:52;102613.28;;;13.36;100.00
9421;BME280;4749;51.398;5.466;2023-05-18T06:56:20;102619.75;;;13.51;100.00
9421;BME280;4749;51.398;5.466;2023-05-18T06:58:47;102617.28;;;13.61;100.00
9421;BME280;4749;51.398;5.466;2023-05-18T07:01:15;102615.72;;;13.72;100.00
9421;BME280;4749;51.398;5.466;2023-05-18T07:03:43;102617.56;;;13.77;100.00
9421;BME280;4749;51.398;5.466;2023-05-18T07:06:11;102618.56;;;13.84;100.00
9421;BME280;4749;51.398;5.466;2023-05-18T07:08:38;102622.19;;;13.89;100.00
9421;BME280;4749;51.398;5.466;2023-05-18T07:11:06;102623.22;;;13.96;100.00
9421;BME280;4749;51.398;5.466;2023-05-18T07:13:33;102625.94;;;14.03;100.00
9421;BME280;4749;51.398;5.466;2023-05-18T07:16:00;102631.34;;;14.08;100.00
9421;BME280;4749;51.398;5.466;2023-05-18T07:18:28;102635.75;;;14.09;100.00
9421;BME280;4749;51.398;5.466;2023-05-18T07:20:55;102630.47;;;14.09;100.00
9421;BME280;4749;51.398;5.466;2023-05-18T07:23:22;102634.88;;;14.08;100.00
9421;BME280;4749;51.398;5.466;2023-05-18T07:25:50;102640.16;;;14.10;100.00
9421;BME280;4749;51.398;5.466;2023-05-18T07:28:17;102642.78;;;14.08;100.00
9421;BME280;4749;51.398;5.466;2023-05-18T07:30:44;102644.53;;;14.06;100.00
9421;BME280;4749;51.398;5.466;2023-05-18T07:33:11;102632.97;;;14.01;100.00
9421;BME280;4749;51.398;5.466;2023-05-18T07:35:38;102639.13;;;14.00;100.00
9421;BME280;4749;51.398;5.466;2023-05-18T07:38:05;102635.63;;;14.01;100.00
9421;BME280;4749;51.398;5.466;2023-05-18T07:40:33;102644.56;;;14.09;100.00
9421;BME280;4749;51.398;5.466;2023-05-18T07:43:00;102649.94;;;14.13;100.00
9421;BME280;4749;51.398;5.466;2023-05-18T07:45:27;102647.28;;;14.13;100.00
9421;BME280;4749;51.398;5.466;2023-05-18T07:47:54;102652.59;;;14.14;100.00
9421;BME280;4749;51.398;5.466;2023-05-18T07:50:22;102651.66;;;14.12;100.00
9421;BME280;4749;51.398;5.466;2023-05-18T07:52:49;102651.78;;;14.18;100.00
9421;BME280;4749;51.398;5.466;2023-05-18T07:55:17;102652.81;;;14.28;100.00
9421;BME280;4749;51.398;5.466;2023-05-18T07:57:47;102653.78;;;14.33;100.00
9421;BME280;4749;51.398;5.466;2023-05-18T08:00:15;102659.06;;;14.31;99.78
9421;BME280;4749;51.398;5.466;2023-05-18T08:02:43;102647.50;;;14.26;99.89
9421;BME280;4749;51.398;5.466;2023-05-18T08:05:15;102654.50;;;14.23;99.22
9421;BME280;4749;51.398;5.466;2023-05-18T08:07:42;102647.44;;;14.22;99.64
9421;BME280;4749;51.398;5.466;2023-05-18T08:10:10;102649.25;;;14.26;100.00
9421;BME280;4749;51.398;5.466;2023-05-18T08:12:37;102644.00;;;14.29;100.00
9421;BME280;4749;51.398;5.466;2023-05-18T08:15:05;102651.13;;;14.31;98.60
9421;BME280;4749;51.398;5.466;2023-05-18T08:17:33;102642.41;;;14.39;98.04
9421;BME280;4749;51.398;5.466;2023-05-18T08:20:00;102649.72;;;14.53;96.99
9421;BME280;4749;51.398;5.466;2023-05-18T08:22:27;102651.69;;;14.68;96.53
9421;BME280;4749;51.398;5.466;2023-05-18T08:24:54;102645.72;;;14.81;94.63
9421;BME280;4749;51.398;5.466;2023-05-18T08:27:22;102645.75;;;14.86;93.56
9421;BME280;4749;51.398;5.466;2023-05-18T08:29:49;102643.22;;;14.93;92.89
9421;BME280;4749;51.398;5.466;2023-05-18T08:32:20;102644.22;;;15.02;92.02
9421;BME280;4749;51.398;5.466;2023-05-18T08:34:51;102635.53;;;15.13;91.54
9421;BME280;4749;51.398;5.466;2023-05-18T08:37:19;102634.88;;;15.33;90.74
9421;BME280;4749;51.398;5.466;2023-05-18T08:39:47;102630.84;;;15.64;88.66
9421;BME280;4749;51.398;5.466;2023-05-18T08:42:27;102629.38;;;15.98;87.18
9421;BME280;4749;51.398;5.466;2023-05-18T08:45:27;102632.28;;;16.28;84.22
9421;BME280;4749;51.398;5.466;2023-05-18T08:47:59;102628.84;;;16.46;83.22
9421;BME280;4749;51.398;5.466;2023-05-18T08:50:31;102622.66;;;16.41;81.30
9421;BME280;4749;51.398;5.466;2023-05-18T08:53:05;102620.00;;;16.47;79.28
9421;BME280;4749;51.398;5.466;2023-05-18T08:55:32;102628.19;;;16.73;78.53
9421;BME280;4749;51.398;5.466;2023-05-18T08:58:06;102628.31;;;17.04;77.42
9421;BME280;4749;51.398;5.466;2023-05-18T09:00:34;102625.78;;;17.39;76.36
9421;BME280;4749;51.398;5.466;2023-05-18T09:03:03;102628.47;;;17.54;75.27
9421;BME280;4749;51.398;5.466;2023-05-18T09:05:31;102623.22;;;17.71;74.15
9421;BME280;4749;51.398;5.466;2023-05-18T09:07:59;102628.56;;;17.85;73.77
9421;BME280;4749;51.398;5.466;2023-05-18T09:10:27;102625.00;;;18.27;73.13
9421;BME280;4749;51.398;5.466;2023-05-18T09:12:55;102621.41;;;18.71;72.09
9421;BME280;4749;51.398;5.466;2023-05-18T09:15:23;102619.50;;;18.99;70.29
9421;BME280;4749;51.398;5.466;2023-05-18T09:17:51;102625.66;;;19.15;68.86
9421;BME280;4749;51.398;5.466;2023-05-18T09:20:19;102615.97;;;18.97;69.02
9421;BME280;4749;51.398;5.466;2023-05-18T09:22:47;102616.88;;;18.93;67.80
9421;BME280;4749;51.398;5.466;2023-05-18T09:25:17;102623.13;;;18.87;66.30
9421;BME280;4749;51.398;5.466;2023-05-18T09:27:46;102622.25;;;18.64;65.33
9421;BME280;4749;51.398;5.466;2023-05-18T09:30:14;102620.56;;;18.34;65.55
9421;BME280;4749;51.398;5.466;2023-05-18T09:32:41;102619.66;;;18.28;65.41
9421;BME280;4749;51.398;5.466;2023-05-18T09:35:08;102617.84;;;18.60;65.50
9421;BME280;4749;51.398;5.466;2023-05-18T09:37:35;102607.16;;;18.78;65.54
9421;BME280;4749;51.398;5.466;2023-05-18T09:40:05;102620.50;;;18.70;65.16
9421;BME280;4749;51.398;5.466;2023-05-18T09:42:41;102614.22;;;18.88;65.01
9421;BME280;4749;51.398;5.466;2023-05-18T09:45:19;102620.44;;;18.87;64.54
9421;BME280;4749;51.398;5.466;2023-05-18T09:47:49;102614.25;;;18.85;63.96
9421;BME280;4749;51.398;5.466;2023-05-18T09:50:22;102618.66;;;18.94;63.33
9421;BME280;4749;51.398;5.466;2023-05-18T09:52:49;102614.19;;;18.97;63.11
9421;BME280;4749;51.398;5.466;2023-05-18T09:55:18;102610.59;;;19.04;62.88
9421;BME280;4749;51.398;5.466;2023-05-18T09:57:49;102607.94;;;19.09;62.74
9421;BME280;4749;51.398;5.466;2023-05-18T10:00:18;102608.78;;;19.17;62.33
9421;BME280;4749;51.398;5.466;2023-05-18T10:02:49;102604.31;;;19.16;62.55
9421;BME280;4749;51.398;5.466;2023-05-18T10:05:24;102599.03;;;19.11;62.88
9421;BME280;4749;51.398;5.466;2023-05-18T10:07:54;102596.31;;;19.19;62.61
9421;BME280;4749;51.398;5.466;2023-05-18T10:10:24;102593.59;;;19.30;62.24
9421;BME280;4749;51.398;5.466;2023-05-18T10:12:53;102590.84;;;19.40;61.92
9421;BME280;4749;51.398;5.466;2023-05-18T10:15:22;102594.34;;;19.50;61.99
9421;BME280;4749;51.398;5.466;2023-05-18T10:17:52;102591.66;;;19.55;61.53
9421;BME280;4749;51.398;5.466;2023-05-18T10:20:23;102598.78;;;19.53;61.10
9421;BME280;4749;51.398;5.466;2023-05-18T10:22:55;102589.88;;;19.58;60.72
9421;BME280;4749;51.398;5.466;2023-05-18T10:25:25;102585.41;;;19.62;60.28
9421;BME280;4749;51.398;5.466;2023-05-18T10:28:01;102586.28;;;19.64;59.78
9421;BME280;4749;51.398;5.466;2023-05-18T10:30:33;102580.97;;;19.58;59.28
9421;BME280;4749;51.398;5.466;2023-05-18T10:33:02;102583.66;;;19.53;59.07
9421;BME280;4749;51.398;5.466;2023-05-18T10:35:44;102578.31;;;19.56;59.31
9421;BME280;4749;51.398;5.466;2023-05-18T10:38:24;102585.41;;;19.59;59.17
9421;BME280;4749;51.398;5.466;2023-05-18T10:40:59;102580.97;;;19.62;58.60
9421;BME280;4749;51.398;5.466;2023-05-18T10:43:27;102581.88;;;19.57;58.47
9421;BME280;4749;51.398;5.466;2023-05-18T10:45:59;102570.31;;;19.55;58.50
9421;BME280;4749;51.398;5.466;2023-05-18T10:48:28;102583.66;;;19.53;58.46
9421;BME280;4749;51.398;5.466;2023-05-18T10:50:57;102575.66;;;19.53;58.19
9421;BME280;4749;51.398;5.466;2023-05-18T10:53:27;102575.63;;;19.55;58.66
9421;BME280;4749;51.398;5.466;2023-05-18T10:55:55;102574.75;;;19.54;58.52
9421;BME280;4749;51.398;5.466;2023-05-18T10:58:27;102568.59;;;19.41;58.42
9421;BME280;4749;51.398;5.466;2023-05-18T11:00:58;102566.88;;;19.36;58.48
9421;BME280;4749;51.398;5.466;2023-05-18T11:03:26;102556.19;;;19.39;58.47
9421;BME280;4749;51.398;5.466;2023-05-18T11:06:11;102568.63;;;19.40;57.85
9421;BME280;4749;51.398;5.466;2023-05-18T11:08:48;102573.97;;;19.38;58.09
9421;BME280;4749;51.398;5.466;2023-05-18T11:11:16;102565.06;;;19.41;57.65
9421;BME280;4749;51.398;5.466;2023-05-18T11:13:49;102572.13;;;19.48;57.31
9421;BME280;4749;51.398;5.466;2023-05-18T11:16:19;102576.56;;;19.52;56.95
9421;BME280;4749;51.398;5.466;2023-05-18T11:18:50;102566.75;;;19.57;57.44
9421;BME280;4749;51.398;5.466;2023-05-18T11:21:48;102566.75;;;19.60;57.28
9421;BME280;4749;51.398;5.466;2023-05-18T11:24:30;102564.06;;;19.63;57.24
9421;BME280;4749;51.398;5.466;2023-05-18T11:27:27;102571.16;;;19.64;56.95
9421;BME280;4749;51.398;5.466;2023-05-18T11:29:54;102559.66;;;19.56;57.51
9421;BME280;4749;51.398;5.466;2023-05-18T11:32:49;102554.31;;;19.53;57.65
9421;BME280;4749;51.398;5.466;2023-05-18T11:35:23;102559.66;;;19.56;57.70
9421;BME280;4749;51.398;5.466;2023-05-18T11:37:50;102555.19;;;19.55;57.13
9421;BME280;4749;51.398;5.466;2023-05-18T11:40:46;102549.06;;;19.44;56.56
9421;BME280;4749;51.398;5.466;2023-05-18T11:43:24;102553.50;;;19.45;56.74
9421;BME280;4749;51.398;5.466;2023-05-18T11:45:54;102554.31;;;19.56;56.83
9421;BME280;4749;51.398;5.466;2023-05-18T11:48:26;102548.94;;;19.62;56.74
9421;BME280;4749;51.398;5.466;2023-05-18T11:50:55;102548.03;;;19.68;57.05
9421;BME280;4749;51.398;5.466;2023-05-18T11:53:24;102539.00;;;19.80;56.60
9421;BME280;4749;51.398;5.466;2023-05-18T11:55:55;102535.31;;;19.96;56.00
9421;BME280;4749;51.398;5.466;2023-05-18T11:58:25;102529.84;;;20.10;55.99
9421;BME280;4749;51.398;5.466;2023-05-18T12:00:53;102523.41;;;20.28;55.93
9421;BME280;4749;51.398;5.466;2023-05-18T12:03:25;102542.84;;;20.40;55.51
9421;BME280;4749;51.398;5.466;2023-05-18T12:05:56;102524.13;;;20.45;55.43
9421;BME280;4749;51.398;5.466;2023-05-18T12:08:27;102530.19;;;20.61;55.67
9421;BME280;4749;51.398;5.466;2023-05-18T12:10:55;102526.59;;;20.62;55.68
9421;BME280;4749;51.398;5.466;2023-05-18T12:13:26;102522.88;;;20.73;55.66
9421;BME280;4749;51.398;5.466;2023-05-18T12:15:55;102520.97;;;20.83;55.44
9421;BME280;4749;51.398;5.466;2023-05-18T12:18:27;102518.13;;;20.95;55.29
9421;BME280;4749;51.398;5.466;2023-05-18T12:20:55;102516.38;;;20.94;54.82
9421;BME280;4749;51.398;5.466;2023-05-18T12:23:35;102524.28;;;21.00;54.42
9421;BME280;4749;51.398;5.466;2023-05-18T12:26:03;102513.47;;;21.08;54.74
9421;BME280;4749;51.398;5.466;2023-05-18T12:28:30;102521.47;;;21.11;54.24
9421;BME280;4749;51.398;5.466;2023-05-18T12:30:57;102527.72;;;21.12;54.17
9421;BME280;4749;51.398;5.466;2023-05-18T12:33:25;102520.44;;;21.18;54.43
9421;BME280;4749;51.398;5.466;2023-05-18T12:35:53;102522.13;;;21.28;54.50
9421;BME280;4749;51.398;5.466;2023-05-18T12:38:24;102515.72;;;21.39;54.27
9421;BME280;4749;51.398;5.466;2023-05-18T12:40:53;102523.69;;;21.42;53.12
9421;BME280;4749;51.398;5.466;2023-05-18T12:43:24;102521.13;;;21.37;53.29
9421;BME280;4749;51.398;5.466;2023-05-18T12:45:52;102522.06;;;21.33;53.16
9421;BME280;4749;51.398;5.466;2023-05-18T12:48:20;102524.78;;;21.30;53.60
9421;BME280;4749;51.398;5.466;2023-05-18T12:50:52;102514.00;;;21.34;53.63
9421;BME280;4749;51.398;5.466;2023-05-18T12:53:21;102517.53;;;21.38;53.48
9421;BME280;4749;51.398;5.466;2023-05-18T12:55:59;102522.13;;;21.28;53.05
9421;BME280;4749;51.398;5.466;2023-05-18T12:58:27;102513.38;;;21.16;52.54
9421;BME280;4749;51.398;5.466;2023-05-18T13:00:54;102504.38;;;21.21;52.87
9421;BME280;4749;51.398;5.466;2023-05-18T13:03:21;102510.63;;;21.22;53.53
9421;BME280;4749;51.398;5.466;2023-05-18T13:06:05;102514.03;;;21.33;52.49
9421;BME280;4749;51.398;5.466;2023-05-18T13:08:34;102503.25;;;21.38;52.79
9421;BME280;4749;51.398;5.466;2023-05-18T13:11:06;102501.41;;;21.41;53.00
9421;BME280;4749;51.398;5.466;2023-05-18T13:13:36;102501.47;;;21.38;52.67
9421;BME280;4749;51.398;5.466;2023-05-18T13:16:04;102498.72;;;21.41;52.75
9421;BME280;4749;51.398;5.466;2023-05-18T13:18:31;102502.31;;;21.40;52.85
9421;BME280;4749;51.398;5.466;2023-05-18T13:20:58;102491.63;;;21.40;52.97